createdAt,value
2017-08-30T00:00:40.094Z,11.17
2017-08-30T00:03:06.973Z,10.53
2017-08-30T00:05:33.883Z,11.23
2017-08-30T00:08:00.754Z,9.70
2017-08-30T00:10:27.632Z,10.27
2017-08-30T00:12:54.515Z,10.80
2017-08-30T00:15:21.388Z,10.10
2017-08-30T00:17:48.344Z,9.90
2017-08-30T00:20:15.231Z,10.40
2017-08-30T00:22:42.159Z,11.73
2017-08-30T00:25:27.381Z,10.83
2017-08-30T00:27:54.292Z,11.07
2017-08-30T00:30:21.212Z,10.43
2017-08-30T00:32:48.125Z,10.90
2017-08-30T00:35:15.023Z,10.80
2017-08-30T00:37:41.894Z,11.20
2017-08-30T00:40:08.798Z,12.30
2017-08-30T00:42:35.671Z,10.87
2017-08-30T00:45:02.626Z,11.50
2017-08-30T00:47:29.559Z,10.83
2017-08-30T00:49:56.483Z,11.23
2017-08-30T00:52:23.450Z,12.53
2017-08-30T00:54:50.378Z,10.77
2017-08-30T00:57:17.279Z,11.03
2017-08-30T00:59:44.162Z,11.30
2017-08-30T01:02:11.150Z,10.60
2017-08-30T01:04:38.031Z,11.40
2017-08-30T01:07:04.962Z,11.40
2017-08-30T01:09:31.848Z,11.33
2017-08-30T01:11:58.744Z,10.83
2017-08-30T01:14:25.614Z,11.00
2017-08-30T01:16:52.506Z,11.47
2017-08-30T01:19:19.492Z,10.80
2017-08-30T01:21:46.438Z,12.03
2017-08-30T01:24:13.358Z,11.07
2017-08-30T01:26:40.258Z,10.63
2017-08-30T01:29:07.138Z,10.80
2017-08-30T01:31:33.998Z,10.93
2017-08-30T01:34:00.890Z,12.07
2017-08-30T01:36:27.764Z,11.13
2017-08-30T01:38:54.666Z,11.97
2017-08-30T01:41:21.569Z,12.27
2017-08-30T01:43:48.437Z,11.50
2017-08-30T01:46:15.340Z,11.63
2017-08-30T01:48:42.252Z,11.70
2017-08-30T01:51:09.145Z,11.63
2017-08-30T01:53:36.078Z,11.77
2017-08-30T01:56:02.971Z,11.80
2017-08-30T01:58:29.844Z,12.27
2017-08-30T02:00:56.749Z,11.90
2017-08-30T02:03:23.679Z,12.67
2017-08-30T02:05:50.552Z,11.97
2017-08-30T02:08:17.483Z,11.93
2017-08-30T02:10:44.370Z,12.10
2017-08-30T02:13:11.233Z,12.33
2017-08-30T02:15:38.116Z,12.60
2017-08-30T02:18:04.985Z,12.30
2017-08-30T02:20:31.891Z,13.00
2017-08-30T02:22:58.793Z,13.00
2017-08-30T02:25:25.717Z,12.03
2017-08-30T02:27:52.620Z,12.83
2017-08-30T02:30:19.507Z,12.50
2017-08-30T02:32:46.420Z,11.43
2017-08-30T02:35:13.368Z,12.97
2017-08-30T02:37:40.258Z,12.77
2017-08-30T02:40:07.137Z,13.17
2017-08-30T02:42:34.047Z,11.77
2017-08-30T02:45:00.933Z,14.27
2017-08-30T02:47:27.829Z,12.27
2017-08-30T02:49:54.718Z,13.37
2017-08-30T02:52:21.596Z,14.03
2017-08-30T02:54:48.473Z,13.40
2017-08-30T02:57:15.441Z,13.67
2017-08-30T02:59:42.307Z,12.87
2017-08-30T03:02:09.212Z,13.20
2017-08-30T03:04:36.116Z,12.63
2017-08-30T03:07:03.024Z,12.90
2017-08-30T03:09:29.906Z,13.13
2017-08-30T03:11:56.821Z,12.60
2017-08-30T03:14:23.784Z,14.70
2017-08-30T03:16:50.664Z,13.20
2017-08-30T03:19:17.564Z,13.20
2017-08-30T03:21:44.447Z,13.37
2017-08-30T03:24:11.379Z,13.80
2017-08-30T03:26:38.265Z,12.70
2017-08-30T03:29:05.153Z,14.23
2017-08-30T03:31:32.038Z,13.70
2017-08-30T03:33:58.919Z,13.20
2017-08-30T03:36:25.826Z,13.03
2017-08-30T03:38:52.732Z,13.23
2017-08-30T03:41:19.641Z,14.83
2017-08-30T03:43:46.503Z,13.93
2017-08-30T03:46:13.387Z,13.20
2017-08-30T03:48:40.270Z,13.40
2017-08-30T03:51:07.155Z,14.13
2017-08-30T03:53:34.066Z,14.70
2017-08-30T03:56:00.998Z,13.90
2017-08-30T03:58:27.880Z,14.40
2017-08-30T04:00:54.771Z,13.93
2017-08-30T04:03:21.730Z,13.93
2017-08-30T04:05:48.645Z,14.03
2017-08-30T04:08:15.549Z,13.37
2017-08-30T04:10:42.429Z,14.77
2017-08-30T04:13:09.340Z,15.50
2017-08-30T04:15:36.250Z,14.83
2017-08-30T04:18:03.132Z,14.47
2017-08-30T04:20:30.060Z,14.73
2017-08-30T04:22:56.976Z,14.80
2017-08-30T04:25:23.883Z,14.93
2017-08-30T04:27:50.800Z,14.17
2017-08-30T04:30:17.746Z,15.63
2017-08-30T04:32:44.610Z,15.40
2017-08-30T04:35:11.516Z,15.23
2017-08-30T04:37:38.422Z,16.37
2017-08-30T04:40:05.362Z,15.07
2017-08-30T04:42:32.257Z,14.27
2017-08-30T04:44:59.157Z,14.70
2017-08-30T04:47:26.044Z,14.13
2017-08-30T04:49:52.910Z,14.43
2017-08-30T04:52:19.791Z,16.30
2017-08-30T04:54:46.678Z,14.90
2017-08-30T04:57:13.549Z,15.57
2017-08-30T04:59:40.403Z,15.93
2017-08-30T05:02:07.291Z,16.50
2017-08-30T05:04:34.190Z,15.10
2017-08-30T05:07:01.082Z,15.20
2017-08-30T05:09:27.950Z,15.80
2017-08-30T05:11:54.844Z,16.77
2017-08-30T05:14:21.692Z,14.30
2017-08-30T05:16:48.580Z,16.10
2017-08-30T05:19:15.508Z,16.03
2017-08-30T05:21:42.396Z,15.20
2017-08-30T05:24:09.286Z,21.83
2017-08-30T05:26:36.159Z,16.73
2017-08-30T05:32:07.703Z,15.87
2017-08-30T05:34:34.549Z,15.90
2017-08-30T05:37:01.414Z,15.87
2017-08-30T05:39:28.219Z,16.53
2017-08-30T05:41:55.192Z,17.63
2017-08-30T05:44:21.995Z,17.50
2017-08-30T05:46:48.830Z,16.30
2017-08-30T05:49:15.660Z,15.80
2017-08-30T05:51:42.512Z,16.50
2017-08-30T05:54:09.346Z,17.87
2017-08-30T05:56:36.250Z,17.27
2017-08-30T05:59:03.077Z,15.10
2017-08-30T06:01:29.935Z,16.60
2017-08-30T06:03:56.773Z,17.70
2017-08-30T06:06:23.607Z,16.37
2017-08-30T06:08:50.490Z,16.03
2017-08-30T06:11:17.319Z,16.87
2017-08-30T06:13:44.161Z,15.43
2017-08-30T06:16:11.040Z,16.10
2017-08-30T06:18:37.887Z,15.00
2017-08-30T06:21:05.294Z,16.40
2017-08-30T06:23:32.276Z,16.83
2017-08-30T06:25:59.708Z,17.30
2017-08-30T06:28:31.676Z,17.10
2017-08-30T06:30:58.719Z,17.40
2017-08-30T06:33:25.707Z,14.87
2017-08-30T06:35:53.043Z,16.80
2017-08-30T06:38:20.938Z,16.10
2017-08-30T06:40:49.335Z,15.33
2017-08-30T06:43:16.584Z,16.13
2017-08-30T06:45:49.525Z,14.97
2017-08-30T06:48:17.170Z,18.13
2017-08-30T06:50:44.233Z,18.13
2017-08-30T06:53:16.487Z,16.37
2017-08-30T06:55:43.476Z,13.33
2017-08-30T06:58:10.609Z,14.33
2017-08-30T07:00:37.612Z,12.37
2017-08-30T07:03:04.865Z,12.47
2017-08-30T07:05:37.041Z,12.57
2017-08-30T07:08:09.026Z,12.20
2017-08-30T07:10:36.993Z,11.00
2017-08-30T07:13:03.951Z,11.53
2017-08-30T07:15:30.898Z,10.50
2017-08-30T07:17:57.783Z,10.40
2017-08-30T07:20:30.827Z,10.37
2017-08-30T07:22:57.722Z,10.20
2017-08-30T07:25:29.715Z,10.00
2017-08-30T07:27:56.773Z,10.33
2017-08-30T07:30:23.992Z,11.83
2017-08-30T07:32:50.913Z,10.30
2017-08-30T07:35:17.925Z,10.70
2017-08-30T07:37:44.969Z,12.33
2017-08-30T07:40:11.982Z,11.50
2017-08-30T07:42:39.968Z,10.27
2017-08-30T07:45:06.919Z,10.80
2017-08-30T07:47:34.534Z,10.87
2017-08-30T07:50:01.560Z,10.60
2017-08-30T07:52:29.829Z,10.87
2017-08-30T07:54:58.112Z,13.00
2017-08-30T07:57:25.327Z,11.90
2017-08-30T07:59:57.983Z,11.57
2017-08-30T08:02:24.928Z,12.00
2017-08-30T08:04:55.940Z,13.27
2017-08-30T08:07:23.794Z,15.73
2017-08-30T08:09:51.193Z,14.60
2017-08-30T08:12:18.535Z,11.90
2017-08-30T08:14:45.689Z,12.73
2017-08-30T08:17:12.778Z,13.67
2017-08-30T08:19:39.890Z,12.50
2017-08-30T08:22:06.817Z,15.97
2017-08-30T08:24:45.056Z,12.33
2017-08-30T08:27:11.959Z,12.30
2017-08-30T08:29:38.891Z,14.13
2017-08-30T08:32:05.936Z,12.83
2017-08-30T08:34:33.284Z,12.03
2017-08-30T08:37:00.227Z,13.37
2017-08-30T08:39:27.404Z,15.43
2017-08-30T08:41:54.785Z,11.70
2017-08-30T08:44:22.109Z,13.00
2017-08-30T08:46:49.011Z,12.30
2017-08-30T08:49:16.095Z,12.37
2017-08-30T08:51:43.308Z,11.07
2017-08-30T08:54:11.103Z,12.93
2017-08-30T08:56:38.142Z,13.33
2017-08-30T08:59:08.396Z,13.00
2017-08-30T09:01:36.439Z,11.80
2017-08-30T09:04:03.459Z,12.70
2017-08-30T09:06:30.973Z,12.17
2017-08-30T09:08:58.931Z,13.93
2017-08-30T09:11:26.342Z,13.10
2017-08-30T09:13:53.492Z,13.00
2017-08-30T09:16:25.648Z,14.17
2017-08-30T09:18:52.844Z,16.17
2017-08-30T09:21:25.354Z,20.87
2017-08-30T09:23:52.724Z,17.67
2017-08-30T09:26:19.637Z,17.10
2017-08-30T09:28:47.495Z,16.73
2017-08-30T09:31:14.474Z,19.73
2017-08-30T09:33:42.390Z,19.27
2017-08-30T09:36:10.282Z,18.07
2017-08-30T09:38:37.575Z,27.87
2017-08-30T09:41:10.164Z,23.17
2017-08-30T09:43:37.485Z,22.87
2017-08-30T09:46:05.155Z,25.50
2017-08-30T09:48:37.442Z,24.40
2017-08-30T09:51:05.624Z,26.40
2017-08-30T09:53:36.141Z,25.13
2017-08-30T09:56:04.012Z,25.53
2017-08-30T09:58:36.262Z,23.30
2017-08-30T10:01:03.348Z,24.43
2017-08-30T10:03:30.749Z,27.53
2017-08-30T10:06:02.998Z,28.03
2017-08-30T10:08:33.045Z,26.57
2017-08-30T10:11:00.237Z,29.40
2017-08-30T10:13:28.178Z,27.10
2017-08-30T10:15:57.068Z,29.10
2017-08-30T10:18:29.918Z,25.13
2017-08-30T10:20:57.207Z,25.07
2017-08-30T10:23:29.191Z,25.30
2017-08-30T10:25:56.208Z,24.53
2017-08-30T10:28:23.110Z,26.63
2017-08-30T10:30:55.240Z,24.50
2017-08-30T10:33:22.486Z,23.17
2017-08-30T10:35:54.681Z,21.10
2017-08-30T10:38:21.689Z,22.50
2017-08-30T10:40:48.648Z,21.93
2017-08-30T10:43:16.575Z,22.20
2017-08-30T10:45:44.319Z,22.37
2017-08-30T10:48:12.225Z,20.40
2017-08-30T10:50:40.108Z,21.67
2017-08-30T10:53:07.485Z,22.20
2017-08-30T10:55:35.729Z,20.00
2017-08-30T10:58:07.810Z,19.30
2017-08-30T11:00:34.817Z,19.97
2017-08-30T11:03:02.016Z,20.37
2017-08-30T11:05:29.191Z,21.50
2017-08-30T11:08:01.917Z,20.47
2017-08-30T11:10:28.841Z,20.57
2017-08-30T11:12:56.355Z,21.53
2017-08-30T11:15:23.567Z,22.33
2017-08-30T11:17:58.492Z,19.87
2017-08-30T11:20:27.695Z,19.00
2017-08-30T11:22:58.687Z,20.50
2017-08-30T11:25:25.712Z,19.40
2017-08-30T11:27:57.009Z,19.50
2017-08-30T11:30:24.128Z,20.97
2017-08-30T11:32:51.122Z,19.30
2017-08-30T11:35:18.113Z,19.17
2017-08-30T11:37:45.159Z,18.50
2017-08-30T11:40:13.571Z,18.57
2017-08-30T11:42:45.646Z,16.90
2017-08-30T11:45:17.880Z,18.67
2017-08-30T11:47:44.742Z,19.90
2017-08-30T11:50:12.052Z,18.23
2017-08-30T11:52:39.329Z,18.60
2017-08-30T11:55:07.365Z,17.97
2017-08-30T11:57:34.316Z,19.47
2017-08-30T12:00:01.352Z,17.07
2017-08-30T12:02:33.945Z,18.13
2017-08-30T12:05:06.124Z,18.80
2017-08-30T12:07:33.184Z,21.10
2017-08-30T12:10:00.220Z,19.17
2017-08-30T12:12:27.269Z,17.90
2017-08-30T12:14:54.264Z,19.83
2017-08-30T12:17:21.455Z,18.27
2017-08-30T12:19:48.655Z,20.53
2017-08-30T12:22:20.923Z,19.33
2017-08-30T12:24:47.828Z,19.97
2017-08-30T12:27:15.295Z,19.90
2017-08-30T12:29:42.995Z,20.53
2017-08-30T12:32:09.979Z,18.27
2017-08-30T12:34:37.391Z,18.27
2017-08-30T12:37:10.682Z,17.60
2017-08-30T12:39:39.625Z,18.33
2017-08-30T12:42:11.962Z,18.30
2017-08-30T12:44:40.424Z,16.97
2017-08-30T12:47:08.421Z,17.67
2017-08-30T12:49:39.639Z,18.70
2017-08-30T12:52:07.480Z,17.67
2017-08-30T12:54:34.450Z,16.63
2017-08-30T12:57:07.832Z,16.70
2017-08-30T12:59:40.459Z,15.57
2017-08-30T13:02:08.511Z,18.23
2017-08-30T13:04:41.016Z,15.93
2017-08-30T13:07:08.056Z,14.90
2017-08-30T13:09:40.574Z,18.20
2017-08-30T13:12:08.737Z,16.87
2017-08-30T13:14:36.197Z,16.80
2017-08-30T13:17:03.480Z,18.17
2017-08-30T13:19:30.638Z,18.00
2017-08-30T13:21:57.469Z,16.97
2017-08-30T13:24:24.491Z,17.80
2017-08-30T13:26:56.624Z,16.47
2017-08-30T13:29:28.912Z,16.10
2017-08-30T13:31:55.874Z,16.37
2017-08-30T13:34:22.999Z,17.17
2017-08-30T13:36:49.935Z,15.93
2017-08-30T13:39:17.321Z,15.47
2017-08-30T13:41:44.312Z,15.87
2017-08-30T13:44:16.429Z,16.70
2017-08-30T13:46:43.663Z,16.47
2017-08-30T13:49:10.525Z,14.77
2017-08-30T13:51:37.394Z,16.83
2017-08-30T13:54:04.807Z,14.83
2017-08-30T13:56:36.809Z,16.07
2017-08-30T13:59:09.391Z,15.50
2017-08-30T14:01:36.416Z,16.40
2017-08-30T14:04:09.040Z,16.27
2017-08-30T14:06:35.954Z,16.20
2017-08-30T14:09:02.956Z,16.77
2017-08-30T14:11:29.935Z,16.00
2017-08-30T14:13:57.025Z,19.00
2017-08-30T14:16:29.137Z,19.83
2017-08-30T14:18:56.171Z,17.17
2017-08-30T14:21:23.279Z,17.00
2017-08-30T14:23:50.922Z,17.30
2017-08-30T14:26:18.009Z,16.70
2017-08-30T14:28:50.119Z,17.17
2017-08-30T14:31:22.259Z,18.03
2017-08-30T14:33:49.235Z,17.40
2017-08-30T14:36:16.230Z,17.37
2017-08-30T14:38:43.476Z,17.40
2017-08-30T14:41:11.719Z,16.83
2017-08-30T14:43:39.190Z,18.10
2017-08-30T14:46:09.171Z,17.73
2017-08-30T14:48:36.592Z,20.27
2017-08-30T14:51:07.047Z,18.63
2017-08-30T14:53:34.080Z,18.87
2017-08-30T14:56:08.846Z,21.17
2017-08-30T14:58:39.918Z,19.80
2017-08-30T15:01:06.874Z,18.60
2017-08-30T15:03:33.996Z,19.27
2017-08-30T15:06:01.907Z,18.20
2017-08-30T15:08:29.312Z,18.87
2017-08-30T15:10:56.244Z,19.53
2017-08-30T15:13:23.421Z,20.37
2017-08-30T15:15:50.451Z,19.93
2017-08-30T15:18:17.790Z,19.60
2017-08-30T15:20:44.715Z,21.07
2017-08-30T15:23:14.437Z,21.63
2017-08-30T15:25:41.462Z,21.20
2017-08-30T15:28:08.599Z,19.60
2017-08-30T15:30:35.663Z,19.23
2017-08-30T15:33:03.092Z,22.80
2017-08-30T15:35:30.826Z,22.23
2017-08-30T15:37:58.168Z,20.27
2017-08-30T15:40:30.328Z,20.90
2017-08-30T15:42:58.062Z,20.27
2017-08-30T15:45:25.286Z,21.83
2017-08-30T15:47:52.311Z,21.17
2017-08-30T15:50:22.460Z,21.27
2017-08-30T15:52:49.534Z,21.03
2017-08-30T15:55:16.578Z,22.13
2017-08-30T15:57:43.628Z,20.93
2017-08-30T16:00:15.714Z,21.30
2017-08-30T16:02:43.888Z,21.97
2017-08-30T16:05:12.121Z,20.27
2017-08-30T16:07:39.215Z,22.90
2017-08-30T16:10:06.248Z,22.20
2017-08-30T16:12:34.238Z,23.60
2017-08-30T16:15:01.242Z,22.30
2017-08-30T16:17:29.121Z,23.20
2017-08-30T16:19:56.219Z,24.17
2017-08-30T16:22:24.046Z,23.43
2017-08-30T16:24:51.126Z,24.60
2017-08-30T16:27:18.444Z,22.77
2017-08-30T16:29:45.612Z,22.50
2017-08-30T16:32:12.671Z,24.03
2017-08-30T16:34:45.119Z,24.60
2017-08-30T16:37:13.051Z,24.10
2017-08-30T16:39:46.205Z,23.73
2017-08-30T16:42:13.637Z,22.13
2017-08-30T16:44:45.638Z,24.27
2017-08-30T16:49:45.252Z,24.33
2017-08-30T16:52:13.297Z,24.37
2017-08-30T16:54:40.428Z,20.87
2017-08-30T16:57:07.763Z,22.53
2017-08-30T16:59:35.278Z,23.57
2017-08-30T17:02:02.214Z,23.07
2017-08-30T17:04:29.160Z,22.10
2017-08-30T17:07:01.366Z,25.40
2017-08-30T17:09:28.204Z,23.87
2017-08-30T17:11:55.942Z,26.33
2017-08-30T17:14:23.265Z,25.40
2017-08-30T17:16:50.351Z,24.23
2017-08-30T17:19:17.245Z,22.67
2017-08-30T17:21:44.357Z,25.63
2017-08-30T17:24:11.406Z,25.40
2017-08-30T17:26:39.135Z,24.63
2017-08-30T17:29:06.503Z,23.60
2017-08-30T17:31:34.926Z,23.10
2017-08-30T17:34:02.082Z,22.90
2017-08-30T17:36:34.374Z,23.47
2017-08-30T17:39:01.443Z,24.90
2017-08-30T17:41:28.409Z,25.73
2017-08-30T17:43:55.683Z,24.23
2017-08-30T17:46:22.643Z,25.40
2017-08-30T17:48:53.534Z,25.93
2017-08-30T17:51:20.593Z,29.00
2017-08-30T17:53:48.085Z,27.10
2017-08-30T17:56:21.583Z,26.23
2017-08-30T17:59:00.032Z,25.97
2017-08-30T18:01:35.900Z,26.70
2017-08-30T18:04:11.482Z,28.13
2017-08-30T18:06:46.433Z,26.67
2017-08-30T18:09:24.597Z,26.97
2017-08-30T18:24:52.875Z,28.40
2017-08-30T18:27:20.715Z,30.23
2017-08-30T18:29:48.757Z,31.63
2017-08-30T18:32:19.622Z,29.10
2017-08-30T18:34:46.967Z,27.40
2017-08-30T18:37:20.721Z,26.90
2017-08-30T18:39:49.553Z,29.87
2017-08-30T18:42:22.012Z,38.20
2017-08-30T18:44:51.985Z,30.70
2017-08-30T18:47:20.200Z,34.50
2017-08-30T18:49:53.286Z,34.93
2017-08-30T18:52:22.090Z,36.20
2017-08-30T18:54:56.186Z,38.10
2017-08-30T18:57:25.932Z,41.17
2017-08-30T18:59:56.150Z,43.60
2017-08-30T19:02:23.536Z,48.53
2017-08-30T19:04:51.029Z,46.93
2017-08-30T19:07:18.488Z,50.43
2017-08-30T19:09:56.945Z,48.67
2017-08-30T19:12:24.190Z,49.80
2017-08-30T19:14:59.269Z,48.67
2017-08-30T19:17:26.337Z,49.97
2017-08-30T19:19:54.741Z,53.43
2017-08-30T19:22:21.807Z,49.83
2017-08-30T19:24:50.241Z,50.10
2017-08-30T19:27:23.497Z,52.53
2017-08-30T19:29:50.442Z,49.93
2017-08-30T19:32:17.461Z,51.73
2017-08-30T19:34:44.495Z,52.83
2017-08-30T19:37:16.440Z,45.37
2017-08-30T19:39:44.023Z,12.90
2017-08-30T19:42:11.172Z,10.77
2017-08-30T19:44:43.665Z,11.43
2017-08-30T19:47:10.991Z,9.80
2017-08-30T19:49:37.874Z,7.77
2017-08-30T19:52:05.729Z,6.10
2017-08-30T19:54:33.344Z,6.30
2017-08-30T19:57:00.354Z,4.53
2017-08-30T19:59:27.387Z,4.03
2017-08-30T20:01:57.441Z,4.13
2017-08-30T20:04:29.461Z,3.47
2017-08-30T20:06:56.570Z,4.63
2017-08-30T20:09:24.128Z,3.67
2017-08-30T20:11:52.019Z,3.53
2017-08-30T20:14:20.742Z,4.30
2017-08-30T20:16:47.932Z,3.90
2017-08-30T20:19:21.618Z,4.20
2017-08-30T20:21:49.020Z,4.57
2017-08-30T20:24:16.813Z,5.00
2017-08-30T20:26:48.941Z,4.97
2017-08-30T20:29:15.777Z,7.03
2017-08-30T20:31:43.760Z,7.13
2017-08-30T20:34:13.919Z,6.00
2017-08-30T20:36:46.224Z,7.23
2017-08-30T20:39:13.138Z,7.50
2017-08-30T20:41:40.080Z,9.00
2017-08-30T20:44:06.908Z,8.57
2017-08-30T20:46:33.784Z,9.40
2017-08-30T20:49:00.653Z,8.70
2017-08-30T20:51:27.566Z,10.50
2017-08-30T20:53:54.400Z,9.80
2017-08-30T20:56:21.233Z,9.90
2017-08-30T20:58:48.115Z,9.53
2017-08-30T21:01:15.024Z,11.27
2017-08-30T21:03:41.993Z,10.57
2017-08-30T21:06:08.793Z,10.70
2017-08-30T21:08:35.657Z,11.00
2017-08-30T21:11:02.492Z,12.50
2017-08-30T21:13:29.302Z,11.47
2017-08-30T21:15:56.219Z,14.43
2017-08-30T21:18:23.049Z,12.73
2017-08-30T21:20:49.903Z,13.47
2017-08-30T21:23:16.737Z,15.00
2017-08-30T21:25:43.583Z,14.13
2017-08-30T21:28:10.441Z,15.40
2017-08-30T21:30:37.264Z,12.83
2017-08-30T21:33:04.096Z,13.43
2017-08-30T21:35:30.936Z,11.40
2017-08-30T21:37:57.985Z,12.23
2017-08-30T21:40:28.477Z,17.20
2017-08-30T21:42:56.378Z,14.37
2017-08-30T21:45:23.411Z,14.30
2017-08-30T21:47:50.259Z,14.00
2017-08-30T21:50:17.100Z,21.43
2017-08-30T21:52:43.981Z,12.53
2017-08-30T21:55:10.816Z,15.30
2017-08-30T21:57:37.665Z,15.87
2017-08-30T22:00:04.528Z,12.43
2017-08-30T22:02:31.389Z,12.03
2017-08-30T22:04:58.242Z,11.20
2017-08-30T22:07:25.203Z,11.73
2017-08-30T22:09:52.635Z,13.73
2017-08-30T22:12:19.746Z,12.97
2017-08-30T22:14:47.046Z,12.63
2017-08-30T22:17:13.891Z,12.87
2017-08-30T22:19:41.184Z,16.30
2017-08-30T22:22:08.383Z,12.97
2017-08-30T22:24:35.298Z,13.13
2017-08-30T22:27:02.118Z,14.80
2017-08-30T22:29:28.951Z,15.83
2017-08-30T22:31:55.911Z,14.20
2017-08-30T22:34:22.734Z,14.33
2017-08-30T22:36:49.577Z,15.00
2017-08-30T22:39:16.722Z,14.40
2017-08-30T22:41:43.712Z,16.13
2017-08-30T22:44:10.659Z,25.23
2017-08-30T22:46:38.217Z,16.03
2017-08-30T22:49:05.476Z,17.47
2017-08-30T22:51:32.355Z,19.63
2017-08-30T22:53:59.746Z,17.67
2017-08-30T22:56:26.775Z,16.63
2017-08-30T22:58:54.199Z,17.13
2017-08-30T23:01:21.069Z,19.40
2017-08-30T23:03:47.938Z,19.03
2017-08-30T23:06:14.793Z,17.27
2017-08-30T23:08:41.645Z,18.87
2017-08-30T23:11:08.516Z,17.60
2017-08-30T23:13:35.377Z,21.83
2017-08-30T23:16:02.240Z,23.73
2017-08-30T23:18:29.178Z,21.97
2017-08-30T23:20:56.039Z,27.13
2017-08-30T23:23:22.877Z,27.43
2017-08-30T23:25:49.752Z,26.00
2017-08-30T23:28:16.623Z,29.77
2017-08-30T23:30:43.479Z,29.87
2017-08-30T23:33:10.317Z,29.60
2017-08-30T23:35:37.229Z,27.70
2017-08-30T23:38:04.055Z,30.13
2017-08-30T23:40:30.889Z,28.10
2017-08-30T23:42:57.723Z,26.03
2017-08-30T23:45:24.602Z,28.20
2017-08-30T23:47:51.470Z,29.97
2017-08-30T23:50:18.304Z,31.93
2017-08-30T23:52:45.210Z,31.77
2017-08-30T23:55:12.090Z,31.17
2017-08-30T23:57:38.936Z,32.50
